Time;durP1;ratioP1;P1;durP2;ratioP2;P2;SDS_P1;SDS_P2;PMS_P1;PMS_P2;Temp;Humidity;BMP_temperature;BMP_pressure;BME280_temperature;BME280_humidity;BME280_pressure;Samples;Min_cycle;Max_cycle;Signal;HPM_P1;HPM_P2
2021/12/09 00:02:27;;;;;;;7.50;3.45;;;11.90;53.80;;;;;;20703521;28;20096;-72
2021/12/09 00:12:28;;;;;;;6.68;3.50;;;11.90;53.80;;;;;;20738502;28;20037;-72
2021/12/09 00:22:28;;;;;;;3.92;2.38;;;11.90;53.90;;;;;;20737576;28;20087;-73
2021/12/09 00:32:29;;;;;;;4.43;2.92;;;11.90;53.90;;;;;;20754247;28;20113;-73
2021/12/09 00:42:29;;;;;;;5.85;2.85;;;11.80;53.90;;;;;;20744843;28;20042;-73
2021/12/09 00:52:30;;;;;;;5.88;3.17;;;11.90;54.00;;;;;;20718291;28;20026;-73
2021/12/09 01:02:30;;;;;;;4.22;2.63;;;11.80;54.00;;;;;;20717642;28;20034;-73
2021/12/09 01:12:31;;;;;;;5.00;2.65;;;11.80;54.00;;;;;;20766335;28;20045;-73
2021/12/09 01:22:39;;;;;;;6.03;3.28;;;11.80;54.10;;;;;;20732208;28;20100;-74
2021/12/09 01:32:43;;;;;;;8.30;3.95;;;11.80;54.10;;;;;;20717638;28;20503;-73
2021/12/09 01:42:44;;;;;;;6.07;3.42;;;11.80;54.10;;;;;;20762894;28;20044;-73
2021/12/09 01:52:45;;;;;;;5.97;3.28;;;11.70;54.10;;;;;;20729693;28;20041;-73
2021/12/09 02:02:46;;;;;;;6.25;3.20;;;11.70;54.20;;;;;;20745659;28;20056;-73
2021/12/09 02:12:50;;;;;;;5.30;3.08;;;11.70;54.20;;;;;;20728617;28;20044;-73
2021/12/09 02:22:51;;;;;;;6.80;3.90;;;11.70;54.20;;;;;;20724989;28;20041;-73
2021/12/09 02:32:52;;;;;;;7.43;4.03;;;11.70;54.90;;;;;;20726551;28;20061;-74
2021/12/09 02:42:52;;;;;;;5.03;3.22;;;11.70;54.30;;;;;;20742736;28;20046;-74
2021/12/09 02:52:53;;;;;;;5.45;3.47;;;11.70;54.30;;;;;;20725290;28;20088;-74
2021/12/09 03:02:56;;;;;;;7.25;3.45;;;11.60;54.40;;;;;;20724401;28;20038;-73
2021/12/09 03:12:59;;;;;;;6.13;2.92;;;11.70;54.40;;;;;;20740750;28;20632;-74
2021/12/09 03:23:00;;;;;;;6.70;3.47;;;11.60;54.40;;;;;;20724208;28;20045;-73
2021/12/09 03:33:02;;;;;;;7.03;3.97;;;11.60;54.50;;;;;;20739661;28;20026;-72
2021/12/09 03:43:04;;;;;;;5.65;3.28;;;11.60;54.50;;;;;;20723334;28;20046;-72
2021/12/09 03:53:04;;;;;;;6.30;3.53;;;11.60;54.50;;;;;;20739057;28;20384;-73
2021/12/09 04:03:06;;;;;;;7.37;4.13;;;11.60;54.60;;;;;;20738291;28;20041;-72
2021/12/09 04:13:06;;;;;;;8.10;3.92;;;11.60;54.60;;;;;;20740631;28;20320;-73
2021/12/09 04:23:07;;;;;;;8.90;3.60;;;11.50;54.60;;;;;;20753274;28;20042;-72
2021/12/09 04:33:08;;;;;;;9.95;4.47;;;11.50;54.60;;;;;;20752728;28;20289;-72
2021/12/09 04:43:08;;;;;;;8.32;4.00;;;11.50;54.70;;;;;;20728764;28;20133;-73
2021/12/09 04:53:09;;;;;;;6.53;3.30;;;11.50;54.70;;;;;;20733140;28;20029;-73
2021/12/09 05:03:12;;;;;;;8.40;4.00;;;11.50;54.80;;;;;;20717780;28;20041;-73
2021/12/09 05:13:13;;;;;;;10.07;4.68;;;11.50;54.70;;;;;;20717482;28;20162;-73
2021/12/09 05:23:14;;;;;;;9.73;5.07;;;12.20;53.50;;;;;;20748960;28;20033;-73
2021/12/09 05:33:14;;;;;;;8.73;4.50;;;13.30;51.20;;;;;;20752038;28;20281;-81
2021/12/09 05:43:16;;;;;;;12.05;5.43;;;14.30;48.90;;;;;;20736708;28;20425;-79
2021/12/09 05:53:16;;;;;;;12.73;5.83;;;15.20;46.70;;;;;;20719934;28;20121;-76
2021/12/09 06:03:19;;;;;;;12.50;5.90;;;15.80;45.20;;;;;;20695845;28;20311;-76
2021/12/09 06:13:22;;;;;;;11.43;5.93;;;16.10;44.30;;;;;;20741771;28;20033;-77
2021/12/09 06:23:22;;;;;;;14.63;6.68;;;16.10;43.90;;;;;;20797158;28;20496;-77
2021/12/09 06:33:23;;;;;;;11.32;6.28;;;16.10;43.80;;;;;;20818909;28;20038;-77
2021/12/09 06:43:23;;;;;;;8.73;5.45;;;16.00;43.90;;;;;;20789939;28;20038;-76
2021/12/09 06:53:24;;;;;;;9.77;5.05;;;15.20;44.90;;;;;;20820121;28;20112;-77
2021/12/09 07:03:25;;;;;;;11.30;4.90;;;14.40;46.50;;;;;;20776040;28;20121;-77
2021/12/09 07:13:25;;;;;;;11.98;6.18;;;13.60;47.90;;;;;;20721985;28;20147;-77
2021/12/09 07:23:26;;;;;;;12.07;5.90;;;13.10;49.10;;;;;;20806101;28;20499;-77
2021/12/09 07:33:26;;;;;;;9.68;5.30;;;12.70;50.10;;;;;;20780507;28;20037;-77
2021/12/09 07:43:28;;;;;;;12.02;5.90;;;12.40;50.90;;;;;;20757794;28;20060;-77
2021/12/09 07:53:30;;;;;;;12.23;6.75;;;12.30;51.50;;;;;;20769381;28;20029;-77
2021/12/09 08:03:31;;;;;;;14.05;6.20;;;12.30;51.70;;;;;;20780672;28;20038;-78
2021/12/09 08:13:31;;;;;;;12.50;6.88;;;12.30;51.80;;;;;;20739883;28;20088;-77
2021/12/09 08:23:33;;;;;;;14.80;7.43;;;12.20;51.90;;;;;;20750402;28;20072;-76
2021/12/09 08:33:35;;;;;;;12.48;6.97;;;12.20;52.00;;;;;;20819268;28;20057;-77
2021/12/09 08:43:37;;;;;;;13.75;6.28;;;12.20;52.10;;;;;;20778490;28;20045;-77
2021/12/09 08:53:37;;;;;;;11.27;6.38;;;12.20;52.20;;;;;;20818616;28;20029;-76
2021/12/09 09:03:39;;;;;;;12.18;6.93;;;12.20;52.20;;;;;;20783657;28;20053;-76
2021/12/09 09:13:41;;;;;;;16.60;7.03;;;12.20;52.30;;;;;;20733042;28;20084;-76
2021/12/09 09:23:42;;;;;;;16.70;7.55;;;12.10;52.40;;;;;;20747465;28;20034;-76
2021/12/09 09:33:43;;;;;;;13.40;6.80;;;12.10;52.50;;;;;;20707327;28;20099;-76
2021/12/09 09:53:48;;;;;;;15.15;8.10;;;12.10;52.60;;;;;;20750572;28;20091;-73
2021/12/09 10:03:58;;;;;;;12.80;5.88;;;12.10;52.70;;;;;;20769084;28;20392;-77
2021/12/09 10:14:22;;;;;;;15.38;7.45;;;12.00;52.60;;;;;;20763696;28;20038;-78
2021/12/09 10:24:26;;;;;;;13.77;7.13;;;12.10;52.70;;;;;;20716598;28;20064;-78
2021/12/09 10:44:35;;;;;;;;;;;12.00;52.80;;;;;;20739303;28;20038;-80
2021/12/09 10:54:37;;;;;;;16.30;7.78;;;12.00;52.80;;;;;;20793531;28;19912;-81
2021/12/09 11:04:38;;;;;;;15.52;7.93;;;12.10;52.90;;;;;;20782094;28;20519;-82
2021/12/09 11:14:50;;;;;;;13.43;7.05;;;12.00;52.80;;;;;;21143471;23;20516;-77
2021/12/09 11:24:58;;;;;;;18.15;7.97;;;12.80;51.40;;;;;;20776131;28;20068;-77
2021/12/09 11:35:13;;;;;;;13.50;7.85;;;13.70;49.60;;;;;;20826815;28;20029;-75
2021/12/09 11:45:15;;;;;;;18.40;8.82;;;14.40;48.00;;;;;;20780861;28;20034;-73
2021/12/09 11:55:19;;;;;;;18.75;9.18;;;15.10;46.40;;;;;;20792871;28;20146;-75
2021/12/09 12:16:38;;;;;;;16.80;8.55;;;15.80;44.40;;;;;;20822156;28;20045;-76
2021/12/09 12:47:15;;;;;;;15.82;9.07;;;15.80;44.10;;;;;;20822195;28;20044;-77
2021/12/09 12:57:36;;;;;;;18.27;7.80;;;15.40;44.50;;;;;;20791430;28;20498;-77
2021/12/09 13:18:03;;;;;;;14.10;7.20;;;13.90;47.20;;;;;;20840620;28;20037;-78
2021/12/09 13:28:08;;;;;;;20.95;10.32;;;13.40;48.40;;;;;;20819740;28;20395;-80
2021/12/09 13:48:41;;;;;;;17.08;8.60;;;12.80;50.00;;;;;;20822340;28;20091;-78
2021/12/09 13:58:47;;;;;;;16.58;8.98;;;12.70;50.40;;;;;;20815451;28;20380;-80
2021/12/09 14:08:53;;;;;;;19.95;9.20;;;12.70;50.60;;;;;;20817448;28;20136;-80
2021/12/09 14:28:58;;;;;;;16.77;9.57;;;12.80;50.50;;;;;;20815774;28;20041;-80
2021/12/09 14:39:07;;;;;;;21.70;9.82;;;12.80;50.70;;;;;;20832573;28;20029;-79
2021/12/09 14:49:22;;;;;;;18.55;10.90;;;12.70;50.70;;;;;;20814844;28;20041;-77
2021/12/09 14:59:29;;;;;;;17.27;9.30;;;12.60;50.80;;;;;;20812523;28;20084;-76
2021/12/09 15:09:29;;;;;;;15.70;9.25;;;12.60;51.10;;;;;;20827980;28;20049;-74
2021/12/09 15:19:30;;;;;;;20.40;10.43;;;12.50;51.20;;;;;;20812568;28;20048;-75
2021/12/09 15:29:33;;;;;;;18.25;9.88;;;12.50;51.40;;;;;;20828015;28;20634;-75
2021/12/09 15:39:41;;;;;;;19.70;9.85;;;12.40;51.60;;;;;;20811271;28;20037;-75
2021/12/09 15:49:50;;;;;;;17.48;9.05;;;12.80;51.10;;;;;;20779512;28;20037;-75
2021/12/09 15:59:51;;;;;;;18.88;9.40;;;13.60;49.30;;;;;;20794342;28;20034;-76
2021/12/09 16:09:51;;;;;;;20.58;9.52;;;14.30;47.80;;;;;;20814755;28;20025;-76
2021/12/09 16:19:54;;;;;;;20.38;10.52;;;15.10;46.30;;;;;;20826944;28;20036;-75
2021/12/09 16:29:55;;;;;;;19.65;10.93;;;15.60;45.10;;;;;;20826173;28;20476;-76
2021/12/09 16:39:55;;;;;;;21.77;11.23;;;15.80;44.50;;;;;;20823118;28;20048;-74
2021/12/09 16:49:56;;;;;;;18.85;10.02;;;15.90;44.10;;;;;;20838358;28;20376;-75
2021/12/09 16:59:56;;;;;;;20.45;10.52;;;15.80;43.80;;;;;;20824393;28;20037;-75
2021/12/09 17:09:57;;;;;;;16.70;10.07;;;15.20;44.80;;;;;;20839804;28;20037;-76
2021/12/09 17:19:58;;;;;;;20.50;10.60;;;14.40;46.30;;;;;;20821761;28;20095;-74
2021/12/09 17:30:06;;;;;;;19.80;10.07;;;13.70;47.60;;;;;;20805204;28;20448;-75
2021/12/09 17:40:07;;;;;;;21.08;11.40;;;13.20;48.70;;;;;;20820882;28;20141;-73
2021/12/09 17:50:13;;;;;;;21.23;11.68;;;12.90;49.50;;;;;;20816915;28;20040;-79
2021/12/09 18:00:19;;;;;;;21.63;10.68;;;12.70;50.20;;;;;;20800237;28;20098;-76
2021/12/09 18:10:26;;;;;;;25.00;13.00;;;12.60;50.60;;;;;;20815429;28;20471;-77
2021/12/09 18:20:27;;;;;;;22.58;10.80;;;12.60;50.80;;;;;;20798893;28;20045;-75
2021/12/09 18:30:34;;;;;;;21.00;10.93;;;12.60;50.90;;;;;;20814484;28;20515;-75
2021/12/09 18:40:37;;;;;;;25.15;10.95;;;12.60;50.90;;;;;;20831025;28;20548;-74
2021/12/09 18:50:39;;;;;;;18.73;10.63;;;12.60;50.80;;;;;;20828199;28;20041;-78
2021/12/09 19:00:43;;;;;;;21.35;11.70;;;12.60;50.80;;;;;;20829177;28;20067;-80
2021/12/09 19:10:44;;;;;;;20.98;11.57;;;12.60;50.80;;;;;;20816136;28;20033;-79
2021/12/09 19:20:44;;;;;;;19.98;11.35;;;12.60;50.80;;;;;;20835491;28;20411;-79
2021/12/09 19:30:45;;;;;;;20.20;10.57;;;12.60;50.90;;;;;;20831220;28;20060;-81
2021/12/09 19:40:45;;;;;;;25.67;12.40;;;12.60;50.90;;;;;;20816896;28;20288;-79
2021/12/09 19:50:47;;;;;;;23.08;11.13;;;12.50;50.90;;;;;;20813638;28;20690;-87
2021/12/09 20:00:48;;;;;;;22.50;10.98;;;12.60;51.00;;;;;;20797176;28;20041;-80
2021/12/09 20:10:49;;;;;;;20.20;11.18;;;12.50;50.90;;;;;;20812762;28;20452;-81
2021/12/09 20:20:50;;;;;;;20.20;11.18;;;12.50;50.90;;;;;;20795637;28;20037;-83
2021/12/09 20:30:54;;;;;;;19.23;10.82;;;12.50;51.00;;;;;;20805619;28;20034;-83
2021/12/09 20:40:55;;;;;;;21.13;10.88;;;12.50;51.00;;;;;;20810385;28;20041;-81
2021/12/09 20:50:58;;;;;;;17.88;10.82;;;12.50;51.10;;;;;;20827174;28;20033;-83
2021/12/09 21:01:00;;;;;;;22.70;11.15;;;12.50;51.10;;;;;;20819900;28;20068;-81
2021/12/09 21:11:01;;;;;;;21.13;11.57;;;12.40;51.20;;;;;;20823108;28;20034;-79
2021/12/09 21:21:11;;;;;;;21.17;11.43;;;12.40;51.20;;;;;;20806304;28;20484;-81
2021/12/09 21:31:12;;;;;;;20.92;10.15;;;12.40;51.30;;;;;;20812389;28;20091;-81
2021/12/09 21:41:19;;;;;;;21.00;10.68;;;12.40;51.40;;;;;;20805509;28;20132;-81
2021/12/09 21:51:19;;;;;;;;;;;12.40;51.40;;;;;;20836985;28;20532;-80
2021/12/09 22:01:20;;;;;;;20.08;11.15;;;12.40;51.40;;;;;;20834312;28;19920;-81
2021/12/09 22:11:23;;;;;;;18.83;9.88;;;12.40;51.50;;;;;;20818221;28;20026;-82
2021/12/09 22:21:25;;;;;;;21.58;9.68;;;12.30;51.50;;;;;;20817163;28;20045;-81
2021/12/09 22:31:25;;;;;;;17.50;10.10;;;12.30;51.50;;;;;;20783964;28;20087;-80
2021/12/09 22:41:26;;;;;;;18.60;10.27;;;12.30;51.60;;;;;;20831065;28;20368;-80
2021/12/09 22:51:28;;;;;;;20.50;11.00;;;12.30;51.60;;;;;;20798831;28;20387;-80
2021/12/09 23:01:29;;;;;;;17.00;9.15;;;12.30;51.60;;;;;;20814424;28;20361;-80
2021/12/09 23:11:33;;;;;;;20.88;10.00;;;12.20;51.50;;;;;;20781817;28;20030;-80
2021/12/09 23:21:35;;;;;;;20.25;10.18;;;12.30;51.60;;;;;;20796636;28;20103;-80
2021/12/09 23:31:35;;;;;;;20.00;9.25;;;12.30;51.60;;;;;;20830157;28;20029;-79
2021/12/09 23:41:40;;;;;;;20.35;10.55;;;12.20;51.60;;;;;;20795590;28;20040;-79
2021/12/09 23:51:47;;;;;;;18.55;9.13;;;12.20;51.60;;;;;;20811863;28;20113;-79
